createdAt,value
2018-01-17T00:00:37.166Z,23.13
2018-01-17T00:03:03.422Z,18.00
2018-01-17T00:05:29.684Z,22.00
2018-01-17T00:07:55.985Z,18.40
2018-01-17T00:10:22.962Z,22.03
2018-01-17T00:12:49.200Z,14.57
2018-01-17T00:15:15.417Z,19.17
2018-01-17T00:17:41.753Z,26.10
2018-01-17T00:20:07.981Z,20.70
2018-01-17T00:22:41.003Z,24.97
2018-01-17T00:25:07.262Z,28.50
2018-01-17T00:27:33.524Z,19.80
2018-01-17T00:29:59.788Z,23.80
2018-01-17T00:32:26.015Z,19.57
2018-01-17T00:34:52.270Z,14.03
2018-01-17T00:37:18.515Z,18.60
2018-01-17T00:39:44.795Z,19.23
2018-01-17T00:42:11.100Z,24.70
2018-01-17T00:44:37.354Z,18.37
2018-01-17T00:47:03.588Z,16.53
2018-01-17T00:49:29.869Z,15.13
2018-01-17T00:51:56.115Z,17.23
2018-01-17T00:54:22.419Z,22.03
2018-01-17T00:56:48.641Z,21.07
2018-01-17T00:59:14.903Z,20.47
2018-01-17T01:01:41.117Z,16.27
2018-01-17T01:04:07.366Z,19.83
2018-01-17T01:06:33.588Z,19.40
2018-01-17T01:08:59.814Z,24.13
2018-01-17T01:11:26.058Z,16.27
2018-01-17T01:13:52.389Z,15.20
2018-01-17T01:16:18.635Z,18.07
2018-01-17T01:18:45.610Z,32.23
2018-01-17T01:21:11.886Z,24.10
2018-01-17T01:23:38.141Z,12.50
2018-01-17T01:26:04.411Z,23.97
2018-01-17T01:28:30.639Z,23.83
2018-01-17T01:30:56.913Z,17.87
2018-01-17T01:33:23.169Z,15.80
2018-01-17T01:35:49.407Z,14.30
2018-01-17T01:38:15.659Z,17.67
2018-01-17T01:40:41.888Z,18.17
2018-01-17T01:43:08.161Z,19.50
2018-01-17T01:45:35.212Z,19.43
2018-01-17T01:48:01.468Z,15.60
2018-01-17T01:50:27.766Z,25.33
2018-01-17T01:52:54.749Z,29.13
2018-01-17T01:55:20.980Z,27.80
2018-01-17T01:57:47.264Z,23.97
2018-01-17T02:00:13.516Z,23.83
2018-01-17T02:02:40.504Z,23.63
2018-01-17T02:05:06.724Z,24.40
2018-01-17T02:07:32.960Z,26.73
2018-01-17T02:09:59.237Z,21.80
2018-01-17T02:12:26.220Z,20.33
2018-01-17T02:14:52.469Z,21.50
2018-01-17T02:17:18.740Z,18.73
2018-01-17T02:19:45.749Z,18.73
2018-01-17T02:22:12.006Z,23.70
2018-01-17T02:24:38.304Z,20.93
2018-01-17T02:27:04.550Z,18.43
2018-01-17T02:29:37.697Z,14.83
2018-01-17T02:32:03.946Z,16.57
2018-01-17T02:34:30.205Z,12.87
2018-01-17T02:36:56.424Z,15.63
2018-01-17T02:39:22.705Z,21.63
2018-01-17T02:41:48.919Z,19.30
2018-01-17T02:44:15.142Z,19.60
2018-01-17T02:46:41.409Z,18.83
2018-01-17T02:49:07.638Z,18.20
2018-01-17T02:51:33.900Z,18.80
2018-01-17T02:54:00.102Z,29.83
2018-01-17T02:56:26.406Z,30.73
2018-01-17T02:58:52.783Z,20.30
2018-01-17T03:01:19.025Z,19.30
2018-01-17T03:03:45.242Z,19.90
2018-01-17T03:06:11.506Z,16.30
2018-01-17T03:08:37.732Z,23.97
2018-01-17T03:11:04.709Z,21.90
2018-01-17T03:13:30.937Z,12.93
2018-01-17T03:15:57.185Z,15.83
2018-01-17T03:18:23.441Z,19.70
2018-01-17T03:20:49.693Z,24.03
2018-01-17T03:23:15.927Z,25.43
2018-01-17T03:25:43.205Z,14.10
2018-01-17T03:28:16.558Z,20.27
2018-01-17T03:30:43.543Z,23.97
2018-01-17T03:33:09.779Z,14.80
2018-01-17T03:35:35.995Z,20.93
2018-01-17T03:38:02.250Z,16.80
2018-01-17T03:40:28.450Z,14.83
2018-01-17T03:42:54.711Z,22.30
2018-01-17T03:47:55.357Z,17.40
2018-01-17T03:50:21.613Z,15.80
2018-01-17T03:52:48.810Z,16.87
2018-01-17T03:55:15.233Z,15.03
2018-01-17T03:57:41.454Z,19.10
2018-01-17T04:00:14.727Z,17.67
2018-01-17T04:02:41.020Z,15.30
2018-01-17T04:05:07.304Z,9.47
2018-01-17T04:07:33.525Z,18.77
2018-01-17T04:09:59.859Z,14.60
2018-01-17T04:12:26.113Z,16.33
2018-01-17T04:14:52.340Z,16.40
2018-01-17T04:17:18.571Z,10.50
2018-01-17T04:19:44.829Z,12.80
2018-01-17T04:22:11.822Z,13.70
2018-01-17T04:24:38.069Z,21.80
2018-01-17T04:27:04.557Z,12.20
2018-01-17T04:29:30.794Z,17.33
2018-01-17T04:31:56.998Z,14.63
2018-01-17T04:34:23.265Z,15.50
2018-01-17T04:36:49.482Z,18.80
2018-01-17T04:39:15.741Z,19.27
2018-01-17T04:41:41.960Z,19.43
2018-01-17T04:44:08.176Z,11.17
2018-01-17T04:46:34.442Z,12.10
2018-01-17T04:49:00.657Z,18.93
2018-01-17T04:51:26.924Z,15.33
2018-01-17T04:53:53.921Z,10.00
2018-01-17T04:56:20.180Z,20.37
2018-01-17T04:58:46.401Z,12.60
2018-01-17T05:01:12.634Z,15.00
2018-01-17T05:03:38.863Z,10.30
2018-01-17T05:06:05.113Z,14.03
2018-01-17T05:08:32.086Z,15.53
2018-01-17T05:10:58.334Z,14.17
2018-01-17T05:13:26.286Z,27.80
2018-01-17T05:15:52.518Z,14.27
2018-01-17T05:18:18.761Z,13.50
2018-01-17T05:20:44.996Z,13.80
2018-01-17T05:23:11.268Z,19.63
2018-01-17T05:25:38.304Z,26.43
2018-01-17T05:28:05.319Z,9.90
2018-01-17T05:30:31.535Z,12.40
2018-01-17T05:32:58.013Z,17.90
2018-01-17T05:35:24.233Z,11.17
2018-01-17T05:37:51.224Z,12.37
2018-01-17T05:40:17.481Z,19.87
2018-01-17T05:42:43.763Z,11.70
2018-01-17T05:45:10.986Z,6.90
2018-01-17T05:47:37.200Z,17.67
2018-01-17T05:50:03.457Z,12.60
2018-01-17T05:52:30.482Z,12.60
2018-01-17T05:54:56.729Z,12.47
2018-01-17T05:57:23.713Z,17.40
2018-01-17T05:59:49.951Z,19.93
2018-01-17T06:02:16.214Z,12.23
2018-01-17T06:04:42.490Z,16.93
2018-01-17T06:07:08.730Z,25.40
2018-01-17T06:09:34.974Z,13.93
2018-01-17T06:12:01.190Z,18.90
2018-01-17T06:14:27.457Z,11.60
2018-01-17T06:16:53.689Z,14.20
2018-01-17T06:19:19.925Z,7.33
2018-01-17T06:21:46.926Z,15.70
2018-01-17T06:24:13.238Z,9.00
2018-01-17T06:26:39.458Z,16.10
2018-01-17T06:29:05.735Z,10.23
2018-01-17T06:31:31.981Z,12.53
2018-01-17T06:33:58.944Z,12.50
2018-01-17T06:36:25.929Z,23.03
2018-01-17T06:38:52.143Z,9.03
2018-01-17T06:41:18.389Z,20.70
2018-01-17T06:43:44.601Z,13.83
2018-01-17T06:46:10.888Z,18.90
2018-01-17T06:48:37.889Z,15.73
2018-01-17T06:51:04.133Z,44.20
2018-01-17T06:53:30.346Z,14.03
2018-01-17T06:55:56.634Z,19.60
2018-01-17T06:58:22.890Z,19.60
2018-01-17T07:00:49.145Z,20.80
2018-01-17T07:03:15.369Z,15.20
2018-01-17T07:05:41.581Z,17.73
2018-01-17T07:08:07.826Z,21.50
2018-01-17T07:10:34.045Z,16.87
2018-01-17T07:13:00.286Z,22.43
2018-01-17T07:15:26.626Z,9.50
2018-01-17T07:17:52.944Z,15.97
2018-01-17T07:20:19.170Z,24.60
2018-01-17T07:22:45.410Z,10.50
2018-01-17T07:25:11.696Z,17.77
2018-01-17T07:27:37.921Z,20.50
2018-01-17T07:30:04.200Z,15.63
2018-01-17T07:32:30.426Z,19.77
2018-01-17T07:34:56.686Z,18.47
2018-01-17T07:37:22.950Z,23.33
2018-01-17T07:39:49.241Z,27.90
2018-01-17T07:42:16.219Z,16.40
2018-01-17T07:44:42.441Z,20.53
2018-01-17T07:47:08.718Z,16.93
2018-01-17T07:49:35.025Z,25.50
2018-01-17T07:52:01.275Z,30.50
2018-01-17T07:54:27.550Z,27.53
2018-01-17T07:56:53.805Z,21.50
2018-01-17T07:59:20.043Z,24.40
2018-01-17T08:01:46.277Z,26.33
2018-01-17T08:04:12.488Z,24.33
2018-01-17T08:06:38.753Z,24.43
2018-01-17T08:09:04.971Z,25.20
2018-01-17T08:11:31.330Z,20.27
2018-01-17T08:13:57.594Z,26.57
2018-01-17T08:16:23.866Z,25.23
2018-01-17T08:18:51.095Z,32.50
2018-01-17T08:21:17.627Z,28.70
2018-01-17T08:23:43.988Z,33.03
2018-01-17T08:26:11.126Z,27.27
2018-01-17T08:28:37.484Z,33.67
2018-01-17T08:31:03.831Z,32.30
2018-01-17T08:33:30.113Z,26.20
2018-01-17T08:35:56.474Z,28.80
2018-01-17T08:38:22.799Z,30.73
2018-01-17T08:40:49.858Z,38.63
2018-01-17T08:43:18.029Z,38.30
2018-01-17T08:45:44.372Z,31.07
2018-01-17T08:48:10.712Z,31.53
2018-01-17T08:50:36.944Z,32.93
2018-01-17T08:53:03.223Z,39.50
2018-01-17T08:55:30.230Z,33.90
2018-01-17T08:57:56.562Z,34.40
2018-01-17T09:00:22.815Z,26.10
2018-01-17T09:02:50.635Z,33.23
2018-01-17T09:05:16.979Z,29.40
2018-01-17T09:07:43.238Z,23.83
2018-01-17T09:10:09.506Z,26.70
2018-01-17T09:12:35.848Z,36.43
2018-01-17T09:15:03.038Z,23.10
2018-01-17T09:17:29.294Z,35.77
2018-01-17T09:19:56.313Z,22.70
2018-01-17T09:22:23.535Z,25.60
2018-01-17T09:24:49.832Z,24.23
2018-01-17T09:27:16.109Z,26.60
2018-01-17T09:29:42.411Z,21.77
2018-01-17T09:32:08.708Z,31.03
2018-01-17T09:34:35.699Z,24.17
2018-01-17T09:37:01.975Z,16.00
2018-01-17T09:39:28.948Z,17.20
2018-01-17T09:41:55.209Z,19.03
2018-01-17T09:44:21.437Z,18.60
2018-01-17T09:46:47.716Z,15.43
2018-01-17T09:49:14.788Z,23.13
2018-01-17T09:51:41.054Z,20.60
2018-01-17T09:54:07.341Z,25.37
2018-01-17T09:56:33.595Z,23.20
2018-01-17T09:58:59.902Z,21.57
2018-01-17T10:01:26.176Z,25.87
2018-01-17T10:03:52.466Z,23.00
2018-01-17T10:06:18.764Z,20.27
2018-01-17T10:08:45.768Z,21.43
2018-01-17T10:11:12.017Z,25.47
2018-01-17T10:13:38.304Z,20.70
2018-01-17T10:16:04.601Z,26.80
2018-01-17T10:18:31.602Z,20.50
2018-01-17T10:20:57.837Z,26.50
2018-01-17T10:23:24.186Z,20.63
2018-01-17T10:25:50.438Z,16.10
2018-01-17T10:28:17.474Z,13.83
2018-01-17T10:30:44.480Z,26.80
2018-01-17T10:33:10.754Z,18.13
2018-01-17T10:35:37.783Z,21.17
2018-01-17T10:38:04.074Z,15.47
2018-01-17T10:40:30.375Z,23.70
2018-01-17T10:42:56.639Z,19.50
2018-01-17T10:45:22.926Z,18.63
2018-01-17T10:47:49.167Z,20.00
2018-01-17T10:50:15.445Z,17.60
2018-01-17T10:52:41.686Z,18.83
2018-01-17T10:55:07.931Z,22.77
2018-01-17T10:57:34.923Z,25.53
2018-01-17T11:00:01.168Z,17.30
2018-01-17T11:02:27.449Z,26.63
2018-01-17T11:04:53.746Z,19.07
2018-01-17T11:07:19.995Z,11.33
2018-01-17T11:09:47.009Z,14.10
2018-01-17T11:12:13.265Z,12.17
2018-01-17T11:14:40.297Z,15.83
2018-01-17T11:17:06.569Z,14.10
2018-01-17T11:19:32.831Z,13.40
2018-01-17T11:21:59.144Z,12.03
2018-01-17T11:24:25.456Z,11.70
2018-01-17T11:26:51.754Z,13.43
2018-01-17T11:29:18.040Z,13.73
2018-01-17T11:31:44.530Z,8.73
2018-01-17T11:34:10.908Z,8.77
2018-01-17T11:36:37.281Z,8.47
2018-01-17T11:39:04.353Z,16.40
2018-01-17T11:41:30.678Z,14.10
2018-01-17T11:43:57.023Z,14.23
2018-01-17T11:46:24.112Z,9.97
2018-01-17T11:48:50.408Z,11.93
2018-01-17T11:51:16.718Z,13.73
2018-01-17T11:53:43.070Z,14.60
2018-01-17T11:56:09.391Z,17.80
2018-01-17T11:58:35.730Z,14.07
2018-01-17T12:01:02.108Z,11.77
2018-01-17T12:03:29.186Z,10.40
2018-01-17T12:05:55.521Z,9.90
2018-01-17T12:08:21.864Z,7.77
2018-01-17T12:10:48.112Z,8.47
2018-01-17T12:13:14.391Z,14.07
2018-01-17T12:15:40.666Z,12.60
2018-01-17T12:18:06.981Z,15.33
2018-01-17T12:20:33.360Z,10.63
2018-01-17T12:23:00.464Z,9.23
2018-01-17T12:25:26.709Z,9.43
2018-01-17T12:27:53.784Z,14.67
2018-01-17T12:30:20.438Z,11.67
2018-01-17T12:32:46.684Z,10.20
2018-01-17T12:35:12.948Z,15.10
2018-01-17T12:37:39.177Z,11.13
2018-01-17T12:40:05.469Z,18.13
2018-01-17T12:42:32.500Z,19.73
2018-01-17T12:44:58.776Z,14.77
2018-01-17T12:47:24.993Z,24.90
2018-01-17T12:49:51.300Z,17.10
2018-01-17T12:52:18.027Z,21.73
2018-01-17T12:54:45.032Z,18.13
2018-01-17T12:57:11.245Z,17.80
2018-01-17T12:59:37.538Z,16.17
2018-01-17T13:02:03.831Z,27.50
2018-01-17T13:04:30.088Z,24.80
2018-01-17T13:06:57.080Z,24.63
2018-01-17T13:09:23.330Z,20.60
2018-01-17T13:11:49.628Z,16.83
2018-01-17T13:14:15.934Z,16.57
2018-01-17T13:16:42.209Z,20.47
2018-01-17T13:19:08.423Z,15.97
2018-01-17T13:21:34.683Z,22.10
2018-01-17T13:24:00.956Z,18.20
2018-01-17T13:26:27.194Z,18.53
2018-01-17T13:28:53.437Z,13.77
2018-01-17T13:31:20.669Z,14.00
2018-01-17T13:33:46.934Z,13.60
2018-01-17T13:36:13.242Z,18.17
2018-01-17T13:38:39.557Z,17.20
2018-01-17T13:41:05.783Z,16.90
2018-01-17T13:43:32.061Z,16.67
2018-01-17T13:45:58.311Z,19.20
2018-01-17T13:48:25.294Z,22.83
2018-01-17T13:50:51.664Z,21.50
2018-01-17T13:53:18.665Z,17.40
2018-01-17T13:55:44.977Z,21.40
2018-01-17T13:58:11.213Z,20.10
2018-01-17T14:00:37.465Z,18.47
2018-01-17T14:03:03.775Z,19.87
2018-01-17T14:05:30.050Z,19.60
2018-01-17T14:07:56.303Z,18.63
2018-01-17T14:10:23.265Z,34.97
2018-01-17T14:12:49.571Z,23.83
2018-01-17T14:15:15.805Z,24.50
2018-01-17T14:17:42.809Z,21.53
2018-01-17T14:20:09.043Z,19.87
2018-01-17T14:22:35.364Z,20.93
2018-01-17T14:25:01.587Z,17.50
2018-01-17T14:27:27.901Z,11.27
2018-01-17T14:29:54.122Z,18.57
2018-01-17T14:32:20.377Z,17.30
2018-01-17T14:34:46.747Z,20.83
2018-01-17T14:37:12.984Z,23.57
2018-01-17T14:39:39.979Z,10.70
2018-01-17T14:42:06.237Z,19.67
2018-01-17T14:44:33.331Z,20.40
2018-01-17T14:46:59.610Z,12.00
2018-01-17T14:49:25.885Z,10.47
2018-01-17T14:51:52.102Z,12.20
2018-01-17T14:54:18.343Z,10.50
2018-01-17T14:56:44.591Z,17.03
2018-01-17T14:59:10.861Z,4.73
2018-01-17T15:01:37.087Z,8.00
2018-01-17T15:04:04.138Z,7.23
2018-01-17T15:06:30.420Z,6.70
2018-01-17T15:08:56.665Z,9.33
2018-01-17T15:11:22.940Z,11.37
2018-01-17T15:13:49.908Z,15.37
2018-01-17T15:16:17.003Z,6.60
2018-01-17T15:18:43.287Z,12.50
2018-01-17T15:21:09.666Z,7.80
2018-01-17T15:23:35.965Z,7.40
2018-01-17T15:26:02.295Z,4.03
2018-01-17T15:28:28.608Z,8.10
2018-01-17T15:30:54.994Z,4.20
2018-01-17T15:33:21.288Z,10.17
2018-01-17T15:35:47.572Z,9.33
2018-01-17T15:38:15.696Z,7.00
2018-01-17T15:40:42.385Z,13.43
2018-01-17T15:43:08.609Z,7.00
2018-01-17T15:45:35.587Z,9.90
2018-01-17T15:48:01.806Z,9.70
2018-01-17T15:50:28.118Z,10.90
2018-01-17T15:52:54.350Z,12.63
2018-01-17T15:55:20.625Z,5.30
2018-01-17T15:57:46.863Z,14.43
2018-01-17T16:00:13.113Z,13.80
2018-01-17T16:02:40.092Z,11.43
2018-01-17T16:05:06.390Z,5.87
2018-01-17T16:07:32.648Z,7.87
2018-01-17T16:09:58.905Z,8.33
2018-01-17T16:12:25.999Z,11.23
2018-01-17T16:14:52.248Z,6.33
2018-01-17T16:17:18.574Z,4.70
2018-01-17T16:19:45.585Z,6.63
2018-01-17T16:22:11.823Z,6.70
2018-01-17T16:24:38.163Z,5.53
2018-01-17T16:27:04.467Z,10.77
2018-01-17T16:29:30.748Z,17.00
2018-01-17T16:31:56.994Z,16.47
2018-01-17T16:34:23.252Z,16.77
2018-01-17T16:36:49.485Z,12.50
2018-01-17T16:39:16.861Z,13.20
2018-01-17T16:41:43.222Z,11.50
2018-01-17T16:44:09.632Z,15.40
2018-01-17T16:46:35.910Z,12.43
2018-01-17T16:49:02.228Z,31.53
2018-01-17T16:51:28.502Z,17.77
2018-01-17T16:53:55.535Z,15.40
2018-01-17T16:56:21.818Z,20.80
2018-01-17T16:58:48.169Z,15.70
2018-01-17T17:01:14.483Z,14.37
2018-01-17T17:03:40.820Z,10.23
2018-01-17T17:06:07.171Z,27.60
2018-01-17T17:08:33.528Z,12.70
2018-01-17T17:11:00.584Z,15.27
2018-01-17T17:13:28.724Z,15.33
2018-01-17T17:15:56.680Z,14.70
2018-01-17T17:18:23.094Z,20.60
2018-01-17T17:20:49.386Z,22.10
2018-01-17T17:23:16.460Z,11.27
2018-01-17T17:25:47.472Z,11.10
2018-01-17T17:28:15.836Z,13.53
2018-01-17T17:30:42.284Z,21.23
2018-01-17T17:33:08.689Z,14.40
2018-01-17T17:35:34.994Z,24.90
2018-01-17T17:38:01.640Z,24.17
2018-01-17T17:40:27.916Z,11.47
2018-01-17T17:42:54.201Z,10.13
2018-01-17T17:45:20.453Z,20.70
2018-01-17T17:47:46.920Z,20.43
2018-01-17T17:50:13.196Z,9.63
2018-01-17T17:52:39.864Z,18.77
2018-01-17T17:55:06.311Z,14.87
2018-01-17T17:57:33.519Z,12.90
2018-01-17T18:00:00.678Z,13.00
2018-01-17T18:02:27.012Z,10.07
2018-01-17T18:04:53.402Z,15.10
2018-01-17T18:07:19.643Z,8.27
2018-01-17T18:09:45.942Z,11.97
2018-01-17T18:12:12.240Z,14.37
2018-01-17T18:14:38.662Z,18.93
2018-01-17T18:17:05.787Z,18.20
2018-01-17T18:19:32.977Z,14.27
2018-01-17T18:21:59.770Z,6.67
2018-01-17T18:24:26.206Z,11.17
2018-01-17T18:26:52.450Z,10.77
2018-01-17T18:29:18.855Z,11.03
2018-01-17T18:31:45.126Z,12.07
2018-01-17T18:34:12.994Z,14.90
2018-01-17T18:36:39.483Z,17.70
2018-01-17T18:39:05.769Z,23.87
2018-01-17T18:41:32.129Z,17.50
2018-01-17T18:43:58.374Z,19.80
2018-01-17T18:46:25.561Z,14.23
2018-01-17T18:48:51.821Z,16.00
2018-01-17T18:51:18.871Z,12.00
2018-01-17T18:53:45.165Z,12.60
2018-01-17T18:56:11.603Z,13.00
2018-01-17T18:58:37.935Z,13.90
2018-01-17T19:01:06.126Z,13.47
2018-01-17T19:03:32.913Z,14.37
2018-01-17T19:05:59.454Z,12.33
2018-01-17T19:08:26.556Z,13.83
2018-01-17T19:10:52.957Z,14.20
2018-01-17T19:13:20.250Z,17.33
2018-01-17T19:15:46.691Z,15.20
2018-01-17T19:18:13.020Z,23.00
2018-01-17T19:20:39.305Z,17.97
2018-01-17T19:23:05.604Z,17.23
2018-01-17T19:25:31.937Z,23.83
2018-01-17T19:27:58.241Z,22.00
2018-01-17T19:30:24.543Z,21.03
2018-01-17T19:32:51.850Z,23.67
2018-01-17T19:35:18.367Z,18.87
2018-01-17T19:37:44.631Z,46.97
2018-01-17T19:40:10.909Z,29.20
2018-01-17T19:55:45.896Z,17.90
2018-01-17T19:58:12.964Z,28.17
2018-01-17T20:00:39.322Z,21.80
2018-01-17T20:03:06.619Z,17.77
2018-01-17T20:05:34.035Z,18.77
2018-01-17T20:08:00.768Z,21.23
2018-01-17T20:10:27.952Z,23.97
2018-01-17T20:12:55.726Z,21.20
2018-01-17T20:15:24.201Z,24.70
2018-01-17T20:17:52.331Z,22.20
2018-01-17T20:20:18.633Z,30.97
2018-01-17T20:22:51.364Z,20.97
2018-01-17T20:25:18.720Z,18.03
2018-01-17T20:27:45.813Z,19.23
2018-01-17T20:30:12.809Z,23.10
2018-01-17T20:32:40.222Z,16.23
2018-01-17T20:35:07.292Z,21.33
2018-01-17T20:37:33.796Z,17.00
2018-01-17T20:40:08.434Z,18.20
2018-01-17T20:42:35.231Z,25.73
2018-01-17T20:45:03.585Z,17.83
2018-01-17T20:47:31.538Z,19.93
2018-01-17T20:49:58.384Z,18.87
2018-01-17T20:52:25.802Z,15.23
2018-01-17T20:54:52.971Z,19.23
2018-01-17T20:57:19.942Z,20.00
2018-01-17T20:59:46.437Z,14.87
2018-01-17T21:02:12.875Z,16.80
2018-01-17T21:04:39.609Z,17.23
2018-01-17T21:07:05.996Z,16.00
2018-01-17T21:09:32.571Z,13.53
2018-01-17T21:11:58.906Z,11.83
2018-01-17T21:14:25.982Z,12.00
2018-01-17T21:16:52.756Z,13.67
2018-01-17T21:19:19.015Z,14.17
2018-01-17T21:21:45.299Z,14.27
2018-01-17T21:24:11.881Z,11.50
2018-01-17T21:26:38.368Z,9.33
2018-01-17T21:29:04.802Z,10.23
2018-01-17T21:31:31.098Z,13.07
2018-01-17T21:33:57.422Z,10.30
2018-01-17T21:36:23.801Z,15.63
2018-01-17T21:38:50.965Z,30.83
2018-01-17T21:41:17.685Z,17.10
2018-01-17T21:43:50.233Z,14.70
2018-01-17T21:46:16.654Z,15.77
2018-01-17T21:48:43.339Z,11.57
2018-01-17T21:51:09.665Z,16.60
2018-01-17T21:53:35.963Z,15.30
2018-01-17T21:56:02.266Z,14.93
2018-01-17T21:58:30.253Z,15.20
2018-01-17T22:00:56.610Z,23.43
2018-01-17T22:03:22.974Z,12.57
2018-01-17T22:05:50.101Z,16.40
2018-01-17T22:08:16.453Z,15.10
2018-01-17T22:10:42.761Z,15.63
2018-01-17T22:13:09.034Z,12.67
2018-01-17T22:15:36.069Z,12.40
2018-01-17T22:18:02.357Z,13.47
2018-01-17T22:20:28.623Z,12.40
2018-01-17T22:22:55.208Z,11.80
2018-01-17T22:25:21.894Z,30.47
2018-01-17T22:27:48.192Z,11.93
2018-01-17T22:30:14.413Z,15.63
2018-01-17T22:32:40.649Z,21.13
2018-01-17T22:35:06.901Z,16.90
2018-01-17T22:37:33.137Z,12.83
2018-01-17T22:39:59.491Z,13.77
2018-01-17T22:42:26.497Z,8.37
2018-01-17T22:44:52.756Z,10.03
2018-01-17T22:47:19.785Z,9.20
2018-01-17T22:49:46.804Z,10.87
2018-01-17T22:52:13.026Z,12.70
2018-01-17T22:54:39.284Z,10.53
2018-01-17T22:57:05.531Z,12.23
2018-01-17T22:59:32.515Z,7.43
2018-01-17T23:01:58.772Z,10.83
2018-01-17T23:04:25.049Z,10.10
2018-01-17T23:06:51.329Z,9.93
2018-01-17T23:09:17.577Z,10.70
2018-01-17T23:11:43.845Z,7.30
2018-01-17T23:14:10.078Z,10.63
2018-01-17T23:16:36.410Z,5.30
2018-01-17T23:19:02.652Z,6.77
2018-01-17T23:21:28.937Z,15.83
2018-01-17T23:23:55.988Z,9.47
2018-01-17T23:26:22.982Z,8.70
2018-01-17T23:28:49.246Z,4.80
2018-01-17T23:31:15.536Z,7.40
2018-01-17T23:33:41.816Z,3.20
2018-01-17T23:36:08.817Z,6.83
2018-01-17T23:38:35.180Z,4.40
2018-01-17T23:41:01.494Z,7.53
2018-01-17T23:43:27.825Z,4.77
2018-01-17T23:45:54.118Z,3.67
2018-01-17T23:48:20.441Z,3.10
2018-01-17T23:50:46.738Z,7.13
2018-01-17T23:53:13.709Z,3.13
2018-01-17T23:55:39.960Z,2.63
2018-01-17T23:58:06.185Z,5.57
